sensor_id;sensor_type;location;lat;lon;timestamp;P1;durP1;ratioP1;P2;durP2;ratioP2
77076;SDS011;66003;52.286;104.306;2023-07-09T00:00:48;17.55;;;12.60;;
77076;SDS011;66003;52.286;104.306;2023-07-09T00:03:15;15.80;;;12.63;;
77076;SDS011;66003;52.286;104.306;2023-07-09T00:05:43;17.63;;;13.43;;
77076;SDS011;66003;52.286;104.306;2023-07-09T00:10:55;21.05;;;13.70;;
77076;SDS011;66003;52.286;104.306;2023-07-09T00:13:23;24.80;;;15.48;;
77076;SDS011;66003;52.286;104.306;2023-07-09T00:15:50;17.92;;;16.08;;
77076;SDS011;66003;52.286;104.306;2023-07-09T00:18:17;22.40;;;17.85;;
77076;SDS011;66003;52.286;104.306;2023-07-09T00:20:43;18.38;;;15.80;;
77076;SDS011;66003;52.286;104.306;2023-07-09T00:23:13;17.85;;;15.95;;
77076;SDS011;66003;52.286;104.306;2023-07-09T00:25:40;18.50;;;14.52;;
77076;SDS011;66003;52.286;104.306;2023-07-09T00:28:13;19.13;;;14.68;;
77076;SDS011;66003;52.286;104.306;2023-07-09T00:30:46;19.05;;;15.35;;
77076;SDS011;66003;52.286;104.306;2023-07-09T00:33:14;20.50;;;17.25;;
77076;SDS011;66003;52.286;104.306;2023-07-09T00:35:44;18.90;;;16.63;;
77076;SDS011;66003;52.286;104.306;2023-07-09T00:38:15;20.42;;;17.00;;
77076;SDS011;66003;52.286;104.306;2023-07-09T00:40:48;21.13;;;16.92;;
77076;SDS011;66003;52.286;104.306;2023-07-09T00:43:25;19.90;;;17.27;;
77076;SDS011;66003;52.286;104.306;2023-07-09T00:48:41;19.40;;;17.38;;
77076;SDS011;66003;52.286;104.306;2023-07-09T00:51:12;21.42;;;19.23;;
77076;SDS011;66003;52.286;104.306;2023-07-09T00:53:46;21.75;;;19.38;;
77076;SDS011;66003;52.286;104.306;2023-07-09T00:56:24;22.58;;;19.85;;
77076;SDS011;66003;52.286;104.306;2023-07-09T00:58:57;22.67;;;19.55;;
77076;SDS011;66003;52.286;104.306;2023-07-09T01:01:30;24.08;;;21.45;;
77076;SDS011;66003;52.286;104.306;2023-07-09T01:03:58;25.15;;;22.45;;
77076;SDS011;66003;52.286;104.306;2023-07-09T01:06:28;26.60;;;23.40;;
77076;SDS011;66003;52.286;104.306;2023-07-09T01:09:01;30.15;;;22.88;;
77076;SDS011;66003;52.286;104.306;2023-07-09T01:11:29;24.50;;;20.30;;
77076;SDS011;66003;52.286;104.306;2023-07-09T01:13:56;22.92;;;18.13;;
77076;SDS011;66003;52.286;104.306;2023-07-09T01:16:27;23.83;;;16.98;;
77076;SDS011;66003;52.286;104.306;2023-07-09T01:18:57;21.13;;;15.95;;
77076;SDS011;66003;52.286;104.306;2023-07-09T01:21:24;21.67;;;15.65;;
77076;SDS011;66003;52.286;104.306;2023-07-09T01:23:50;20.90;;;14.50;;
77076;SDS011;66003;52.286;104.306;2023-07-09T01:26:19;19.73;;;15.18;;
77076;SDS011;66003;52.286;104.306;2023-07-09T01:28:50;16.23;;;13.57;;
77076;SDS011;66003;52.286;104.306;2023-07-09T01:31:18;18.08;;;12.95;;
77076;SDS011;66003;52.286;104.306;2023-07-09T01:33:45;17.95;;;13.32;;
77076;SDS011;66003;52.286;104.306;2023-07-09T01:36:13;20.13;;;12.73;;
77076;SDS011;66003;52.286;104.306;2023-07-09T01:38:42;21.45;;;14.07;;
77076;SDS011;66003;52.286;104.306;2023-07-09T01:41:09;18.38;;;13.13;;
77076;SDS011;66003;52.286;104.306;2023-07-09T01:43:40;17.83;;;13.52;;
77076;SDS011;66003;52.286;104.306;2023-07-09T01:46:08;19.25;;;14.40;;
77076;SDS011;66003;52.286;104.306;2023-07-09T01:48:35;19.38;;;15.00;;
77076;SDS011;66003;52.286;104.306;2023-07-09T01:51:06;23.58;;;16.63;;
77076;SDS011;66003;52.286;104.306;2023-07-09T01:53:35;22.48;;;16.55;;
77076;SDS011;66003;52.286;104.306;2023-07-09T01:56:03;24.05;;;16.38;;
77076;SDS011;66003;52.286;104.306;2023-07-09T01:58:29;21.77;;;14.95;;
77076;SDS011;66003;52.286;104.306;2023-07-09T02:00:56;20.58;;;15.63;;
77076;SDS011;66003;52.286;104.306;2023-07-09T02:03:22;22.95;;;14.05;;
77076;SDS011;66003;52.286;104.306;2023-07-09T02:05:53;18.17;;;14.20;;
77076;SDS011;66003;52.286;104.306;2023-07-09T02:08:20;21.33;;;14.85;;
77076;SDS011;66003;52.286;104.306;2023-07-09T02:10:49;14.93;;;11.98;;
77076;SDS011;66003;52.286;104.306;2023-07-09T02:13:17;15.70;;;11.00;;
77076;SDS011;66003;52.286;104.306;2023-07-09T02:15:44;14.50;;;10.32;;
77076;SDS011;66003;52.286;104.306;2023-07-09T02:18:11;14.00;;;10.18;;
77076;SDS011;66003;52.286;104.306;2023-07-09T02:20:58;17.40;;;10.93;;
77076;SDS011;66003;52.286;104.306;2023-07-09T02:23:27;11.77;;;8.80;;
77076;SDS011;66003;52.286;104.306;2023-07-09T02:25:54;13.80;;;9.68;;
77076;SDS011;66003;52.286;104.306;2023-07-09T02:28:20;16.75;;;10.38;;
77076;SDS011;66003;52.286;104.306;2023-07-09T02:30:47;13.20;;;9.73;;
77076;SDS011;66003;52.286;104.306;2023-07-09T02:33:13;16.85;;;10.60;;
77076;SDS011;66003;52.286;104.306;2023-07-09T02:35:39;14.65;;;9.68;;
77076;SDS011;66003;52.286;104.306;2023-07-09T02:38:05;19.02;;;9.30;;
77076;SDS011;66003;52.286;104.306;2023-07-09T02:40:31;13.93;;;10.05;;
77076;SDS011;66003;52.286;104.306;2023-07-09T02:42:59;10.60;;;8.40;;
77076;SDS011;66003;52.286;104.306;2023-07-09T02:45:25;10.60;;;8.50;;
77076;SDS011;66003;52.286;104.306;2023-07-09T02:47:51;10.43;;;7.97;;
77076;SDS011;66003;52.286;104.306;2023-07-09T02:50:18;12.23;;;7.28;;
77076;SDS011;66003;52.286;104.306;2023-07-09T02:52:44;12.30;;;8.63;;
77076;SDS011;66003;52.286;104.306;2023-07-09T02:55:10;10.95;;;8.57;;
77076;SDS011;66003;52.286;104.306;2023-07-09T02:57:36;10.63;;;8.55;;
77076;SDS011;66003;52.286;104.306;2023-07-09T03:00:02;12.95;;;8.95;;
77076;SDS011;66003;52.286;104.306;2023-07-09T03:02:31;11.52;;;8.23;;
77076;SDS011;66003;52.286;104.306;2023-07-09T03:04:58;10.55;;;7.60;;
77076;SDS011;66003;52.286;104.306;2023-07-09T03:07:24;13.00;;;9.15;;
77076;SDS011;66003;52.286;104.306;2023-07-09T03:09:51;11.88;;;8.85;;
77076;SDS011;66003;52.286;104.306;2023-07-09T03:12:17;11.88;;;9.18;;
77076;SDS011;66003;52.286;104.306;2023-07-09T03:14:46;10.02;;;7.93;;
77076;SDS011;66003;52.286;104.306;2023-07-09T03:17:13;13.85;;;8.55;;
77076;SDS011;66003;52.286;104.306;2023-07-09T03:19:39;11.80;;;8.57;;
77076;SDS011;66003;52.286;104.306;2023-07-09T03:22:05;13.35;;;9.65;;
77076;SDS011;66003;52.286;104.306;2023-07-09T03:24:31;13.95;;;8.75;;
77076;SDS011;66003;52.286;104.306;2023-07-09T03:26:58;12.05;;;8.25;;
77076;SDS011;66003;52.286;104.306;2023-07-09T03:29:24;11.73;;;8.73;;
77076;SDS011;66003;52.286;104.306;2023-07-09T03:31:50;12.10;;;8.13;;
77076;SDS011;66003;52.286;104.306;2023-07-09T03:34:16;11.93;;;8.45;;
77076;SDS011;66003;52.286;104.306;2023-07-09T03:36:42;11.73;;;8.52;;
77076;SDS011;66003;52.286;104.306;2023-07-09T03:39:11;20.23;;;9.27;;
77076;SDS011;66003;52.286;104.306;2023-07-09T03:41:37;11.00;;;8.57;;
77076;SDS011;66003;52.286;104.306;2023-07-09T03:44:03;10.98;;;8.70;;
77076;SDS011;66003;52.286;104.306;2023-07-09T03:46:30;13.43;;;9.18;;
77076;SDS011;66003;52.286;104.306;2023-07-09T03:48:57;12.38;;;8.70;;
77076;SDS011;66003;52.286;104.306;2023-07-09T03:51:24;12.80;;;9.85;;
77076;SDS011;66003;52.286;104.306;2023-07-09T03:53:50;13.48;;;9.05;;
77076;SDS011;66003;52.286;104.306;2023-07-09T03:56:16;11.35;;;9.25;;
77076;SDS011;66003;52.286;104.306;2023-07-09T03:58:43;14.25;;;9.93;;
77076;SDS011;66003;52.286;104.306;2023-07-09T04:01:09;13.43;;;9.98;;
77076;SDS011;66003;52.286;104.306;2023-07-09T04:03:35;16.38;;;10.55;;
77076;SDS011;66003;52.286;104.306;2023-07-09T04:06:01;12.75;;;9.93;;
77076;SDS011;66003;52.286;104.306;2023-07-09T04:08:27;13.63;;;9.27;;
77076;SDS011;66003;52.286;104.306;2023-07-09T04:10:54;13.23;;;9.85;;
77076;SDS011;66003;52.286;104.306;2023-07-09T04:13:24;12.63;;;10.50;;
77076;SDS011;66003;52.286;104.306;2023-07-09T04:15:52;13.60;;;8.90;;
77076;SDS011;66003;52.286;104.306;2023-07-09T04:18:18;11.35;;;8.60;;
77076;SDS011;66003;52.286;104.306;2023-07-09T04:20:47;14.15;;;8.55;;
77076;SDS011;66003;52.286;104.306;2023-07-09T04:23:15;11.48;;;8.32;;
77076;SDS011;66003;52.286;104.306;2023-07-09T04:25:42;12.88;;;8.38;;
77076;SDS011;66003;52.286;104.306;2023-07-09T04:28:08;15.75;;;9.10;;
77076;SDS011;66003;52.286;104.306;2023-07-09T04:30:34;12.18;;;9.27;;
77076;SDS011;66003;52.286;104.306;2023-07-09T04:33:00;11.07;;;8.23;;
77076;SDS011;66003;52.286;104.306;2023-07-09T04:35:26;11.77;;;8.68;;
77076;SDS011;66003;52.286;104.306;2023-07-09T04:37:52;14.45;;;9.50;;
77076;SDS011;66003;52.286;104.306;2023-07-09T04:40:19;12.75;;;9.07;;
77076;SDS011;66003;52.286;104.306;2023-07-09T04:42:46;13.60;;;9.75;;
77076;SDS011;66003;52.286;104.306;2023-07-09T04:45:12;13.25;;;9.65;;
77076;SDS011;66003;52.286;104.306;2023-07-09T04:47:39;11.55;;;8.63;;
77076;SDS011;66003;52.286;104.306;2023-07-09T04:50:05;14.75;;;9.55;;
77076;SDS011;66003;52.286;104.306;2023-07-09T04:52:33;14.20;;;9.57;;
77076;SDS011;66003;52.286;104.306;2023-07-09T04:55:00;14.07;;;9.60;;
77076;SDS011;66003;52.286;104.306;2023-07-09T04:57:29;14.48;;;9.00;;
77076;SDS011;66003;52.286;104.306;2023-07-09T04:59:55;15.02;;;10.27;;
77076;SDS011;66003;52.286;104.306;2023-07-09T05:02:22;16.48;;;11.32;;
77076;SDS011;66003;52.286;104.306;2023-07-09T05:04:48;18.00;;;10.90;;
77076;SDS011;66003;52.286;104.306;2023-07-09T05:07:15;15.68;;;10.80;;
77076;SDS011;66003;52.286;104.306;2023-07-09T05:09:41;15.32;;;10.70;;
77076;SDS011;66003;52.286;104.306;2023-07-09T05:12:08;19.73;;;11.60;;
77076;SDS011;66003;52.286;104.306;2023-07-09T05:14:34;23.73;;;11.55;;
77076;SDS011;66003;52.286;104.306;2023-07-09T05:17:01;18.30;;;10.68;;
77076;SDS011;66003;52.286;104.306;2023-07-09T05:19:27;15.35;;;8.98;;
77076;SDS011;66003;52.286;104.306;2023-07-09T05:21:53;13.70;;;9.15;;
77076;SDS011;66003;52.286;104.306;2023-07-09T05:24:19;16.10;;;10.30;;
77076;SDS011;66003;52.286;104.306;2023-07-09T05:26:45;21.60;;;10.73;;
77076;SDS011;66003;52.286;104.306;2023-07-09T05:29:11;21.00;;;10.40;;
77076;SDS011;66003;52.286;104.306;2023-07-09T05:31:38;18.65;;;10.48;;
77076;SDS011;66003;52.286;104.306;2023-07-09T05:34:07;18.85;;;9.82;;
77076;SDS011;66003;52.286;104.306;2023-07-09T05:36:35;23.85;;;10.88;;
77076;SDS011;66003;52.286;104.306;2023-07-09T05:39:02;19.83;;;11.40;;
77076;SDS011;66003;52.286;104.306;2023-07-09T05:41:28;23.70;;;11.23;;
77076;SDS011;66003;52.286;104.306;2023-07-09T05:43:54;23.42;;;10.60;;
77076;SDS011;66003;52.286;104.306;2023-07-09T05:46:22;23.40;;;11.38;;
77076;SDS011;66003;52.286;104.306;2023-07-09T05:48:49;22.83;;;11.95;;
77076;SDS011;66003;52.286;104.306;2023-07-09T05:51:15;21.13;;;10.68;;
77076;SDS011;66003;52.286;104.306;2023-07-09T05:53:41;21.08;;;10.70;;
77076;SDS011;66003;52.286;104.306;2023-07-09T05:56:07;17.58;;;10.63;;
77076;SDS011;66003;52.286;104.306;2023-07-09T05:58:33;19.15;;;10.05;;
77076;SDS011;66003;52.286;104.306;2023-07-09T06:01:00;17.13;;;10.80;;
77076;SDS011;66003;52.286;104.306;2023-07-09T06:03:26;16.92;;;10.65;;
77076;SDS011;66003;52.286;104.306;2023-07-09T06:05:54;39.20;;;19.83;;
77076;SDS011;66003;52.286;104.306;2023-07-09T06:08:22;18.45;;;10.82;;
77076;SDS011;66003;52.286;104.306;2023-07-09T06:10:57;15.80;;;9.63;;
77076;SDS011;66003;52.286;104.306;2023-07-09T06:13:26;18.67;;;9.77;;
77076;SDS011;66003;52.286;104.306;2023-07-09T06:15:56;17.90;;;10.45;;
77076;SDS011;66003;52.286;104.306;2023-07-09T06:18:24;23.50;;;12.63;;
77076;SDS011;66003;52.286;104.306;2023-07-09T06:20:55;18.15;;;10.60;;
77076;SDS011;66003;52.286;104.306;2023-07-09T06:23:24;12.13;;;7.32;;
77076;SDS011;66003;52.286;104.306;2023-07-09T06:25:50;9.10;;;6.95;;
77076;SDS011;66003;52.286;104.306;2023-07-09T06:28:20;9.65;;;7.60;;
77076;SDS011;66003;52.286;104.306;2023-07-09T06:30:48;11.88;;;7.57;;
77076;SDS011;66003;52.286;104.306;2023-07-09T06:33:15;9.75;;;7.20;;
77076;SDS011;66003;52.286;104.306;2023-07-09T06:35:51;12.07;;;8.20;;
77076;SDS011;66003;52.286;104.306;2023-07-09T06:38:19;13.50;;;9.23;;
77076;SDS011;66003;52.286;104.306;2023-07-09T06:40:45;14.60;;;9.23;;
77076;SDS011;66003;52.286;104.306;2023-07-09T06:43:12;14.63;;;8.70;;
77076;SDS011;66003;52.286;104.306;2023-07-09T06:45:38;11.00;;;9.05;;
77076;SDS011;66003;52.286;104.306;2023-07-09T06:48:05;12.32;;;9.23;;
77076;SDS011;66003;52.286;104.306;2023-07-09T06:50:34;15.75;;;10.27;;
77076;SDS011;66003;52.286;104.306;2023-07-09T06:53:01;13.32;;;8.45;;
77076;SDS011;66003;52.286;104.306;2023-07-09T06:55:27;12.93;;;9.30;;
77076;SDS011;66003;52.286;104.306;2023-07-09T06:57:53;13.85;;;9.30;;
77076;SDS011;66003;52.286;104.306;2023-07-09T07:00:19;16.25;;;10.30;;
77076;SDS011;66003;52.286;104.306;2023-07-09T07:02:46;14.48;;;9.55;;
77076;SDS011;66003;52.286;104.306;2023-07-09T07:05:12;14.73;;;9.88;;
77076;SDS011;66003;52.286;104.306;2023-07-09T07:07:38;13.73;;;10.23;;
77076;SDS011;66003;52.286;104.306;2023-07-09T07:10:04;14.73;;;9.65;;
77076;SDS011;66003;52.286;104.306;2023-07-09T07:12:40;13.23;;;9.50;;
77076;SDS011;66003;52.286;104.306;2023-07-09T07:15:07;13.52;;;8.48;;
77076;SDS011;66003;52.286;104.306;2023-07-09T07:17:34;15.18;;;8.70;;
77076;SDS011;66003;52.286;104.306;2023-07-09T07:20:02;14.13;;;9.27;;
77076;SDS011;66003;52.286;104.306;2023-07-09T07:22:28;12.93;;;9.05;;
77076;SDS011;66003;52.286;104.306;2023-07-09T07:24:54;12.68;;;9.05;;
77076;SDS011;66003;52.286;104.306;2023-07-09T07:27:20;13.45;;;9.80;;
77076;SDS011;66003;52.286;104.306;2023-07-09T07:29:47;12.70;;;9.00;;
77076;SDS011;66003;52.286;104.306;2023-07-09T07:32:13;16.50;;;9.70;;
77076;SDS011;66003;52.286;104.306;2023-07-09T07:34:39;13.60;;;9.35;;
77076;SDS011;66003;52.286;104.306;2023-07-09T07:37:05;12.85;;;8.60;;
77076;SDS011;66003;52.286;104.306;2023-07-09T07:39:31;13.00;;;9.60;;
77076;SDS011;66003;52.286;104.306;2023-07-09T07:41:58;12.57;;;8.85;;
77076;SDS011;66003;52.286;104.306;2023-07-09T07:44:24;13.43;;;9.82;;
77076;SDS011;66003;52.286;104.306;2023-07-09T07:46:50;13.88;;;9.75;;
77076;SDS011;66003;52.286;104.306;2023-07-09T07:49:17;16.40;;;9.52;;
77076;SDS011;66003;52.286;104.306;2023-07-09T07:51:43;17.13;;;12.07;;
77076;SDS011;66003;52.286;104.306;2023-07-09T07:54:09;14.18;;;9.75;;
77076;SDS011;66003;52.286;104.306;2023-07-09T07:56:36;15.55;;;10.57;;
77076;SDS011;66003;52.286;104.306;2023-07-09T07:59:02;14.50;;;9.68;;
77076;SDS011;66003;52.286;104.306;2023-07-09T08:01:29;12.38;;;9.60;;
77076;SDS011;66003;52.286;104.306;2023-07-09T08:03:55;15.02;;;10.23;;
77076;SDS011;66003;52.286;104.306;2023-07-09T08:06:21;14.20;;;10.25;;
77076;SDS011;66003;52.286;104.306;2023-07-09T08:08:47;14.35;;;9.60;;
77076;SDS011;66003;52.286;104.306;2023-07-09T08:11:14;13.80;;;9.45;;
77076;SDS011;66003;52.286;104.306;2023-07-09T08:13:40;15.38;;;9.50;;
77076;SDS011;66003;52.286;104.306;2023-07-09T08:16:07;13.90;;;9.27;;
77076;SDS011;66003;52.286;104.306;2023-07-09T08:18:34;15.35;;;9.80;;
77076;SDS011;66003;52.286;104.306;2023-07-09T08:21:00;12.73;;;8.82;;
77076;SDS011;66003;52.286;104.306;2023-07-09T08:23:26;12.60;;;9.07;;
77076;SDS011;66003;52.286;104.306;2023-07-09T08:25:53;13.48;;;9.52;;
77076;SDS011;66003;52.286;104.306;2023-07-09T08:28:20;15.77;;;10.18;;
77076;SDS011;66003;52.286;104.306;2023-07-09T08:30:46;13.88;;;9.32;;
77076;SDS011;66003;52.286;104.306;2023-07-09T08:33:12;13.15;;;9.20;;
77076;SDS011;66003;52.286;104.306;2023-07-09T08:35:41;13.00;;;9.73;;
77076;SDS011;66003;52.286;104.306;2023-07-09T08:38:08;14.75;;;10.25;;
77076;SDS011;66003;52.286;104.306;2023-07-09T08:40:38;13.57;;;9.20;;
77076;SDS011;66003;52.286;104.306;2023-07-09T08:43:10;13.77;;;9.70;;
77076;SDS011;66003;52.286;104.306;2023-07-09T08:45:50;12.95;;;8.05;;
77076;SDS011;66003;52.286;104.306;2023-07-09T08:48:32;13.48;;;9.05;;
77076;SDS011;66003;52.286;104.306;2023-07-09T08:54:04;13.35;;;8.48;;
77076;SDS011;66003;52.286;104.306;2023-07-09T08:56:40;16.60;;;9.52;;
77076;SDS011;66003;52.286;104.306;2023-07-09T08:59:07;13.32;;;8.75;;
77076;SDS011;66003;52.286;104.306;2023-07-09T09:01:51;15.15;;;9.30;;
77076;SDS011;66003;52.286;104.306;2023-07-09T09:04:24;13.23;;;9.07;;
77076;SDS011;66003;52.286;104.306;2023-07-09T09:09:40;13.45;;;9.50;;
77076;SDS011;66003;52.286;104.306;2023-07-09T09:12:24;13.80;;;9.82;;
77076;SDS011;66003;52.286;104.306;2023-07-09T09:14:57;15.43;;;10.00;;
77076;SDS011;66003;52.286;104.306;2023-07-09T09:17:30;14.75;;;9.57;;
77076;SDS011;66003;52.286;104.306;2023-07-09T09:20:04;16.88;;;10.20;;
77076;SDS011;66003;52.286;104.306;2023-07-09T09:23:15;12.98;;;8.63;;
77076;SDS011;66003;52.286;104.306;2023-07-09T09:25:29;15.48;;;9.77;;
77076;SDS011;66003;52.286;104.306;2023-07-09T09:27:59;14.40;;;9.32;;
77076;SDS011;66003;52.286;104.306;2023-07-09T09:30:27;14.60;;;9.27;;
77076;SDS011;66003;52.286;104.306;2023-07-09T09:33:01;16.52;;;9.75;;
77076;SDS011;66003;52.286;104.306;2023-07-09T09:35:35;19.55;;;10.30;;
77076;SDS011;66003;52.286;104.306;2023-07-09T09:38:09;15.48;;;8.75;;
77076;SDS011;66003;52.286;104.306;2023-07-09T09:40:37;14.00;;;8.73;;
77076;SDS011;66003;52.286;104.306;2023-07-09T09:43:18;15.68;;;9.05;;
77076;SDS011;66003;52.286;104.306;2023-07-09T09:45:47;15.88;;;8.98;;
77076;SDS011;66003;52.286;104.306;2023-07-09T09:50:44;14.77;;;9.30;;
77076;SDS011;66003;52.286;104.306;2023-07-09T09:53:16;17.70;;;10.15;;
77076;SDS011;66003;52.286;104.306;2023-07-09T09:55:45;16.13;;;9.73;;
77076;SDS011;66003;52.286;104.306;2023-07-09T09:58:12;12.43;;;8.35;;
77076;SDS011;66003;52.286;104.306;2023-07-09T10:00:46;14.07;;;8.63;;
77076;SDS011;66003;52.286;104.306;2023-07-09T10:03:17;18.55;;;9.82;;
77076;SDS011;66003;52.286;104.306;2023-07-09T10:05:45;16.02;;;9.30;;
77076;SDS011;66003;52.286;104.306;2023-07-09T10:11:19;14.43;;;8.93;;
77076;SDS011;66003;52.286;104.306;2023-07-09T10:13:55;15.38;;;8.98;;
77076;SDS011;66003;52.286;104.306;2023-07-09T10:16:25;13.55;;;9.73;;
77076;SDS011;66003;52.286;104.306;2023-07-09T10:22:04;14.05;;;9.15;;
77076;SDS011;66003;52.286;104.306;2023-07-09T10:31:04;14.85;;;9.88;;
77076;SDS011;66003;52.286;104.306;2023-07-09T10:33:27;16.83;;;9.45;;
77076;SDS011;66003;52.286;104.306;2023-07-09T10:36:16;18.58;;;9.90;;
77076;SDS011;66003;52.286;104.306;2023-07-09T10:38:57;16.75;;;9.02;;
77076;SDS011;66003;52.286;104.306;2023-07-09T10:41:37;16.42;;;9.35;;
77076;SDS011;66003;52.286;104.306;2023-07-09T10:44:29;13.10;;;9.30;;
77076;SDS011;66003;52.286;104.306;2023-07-09T10:47:47;16.02;;;9.52;;
77076;SDS011;66003;52.286;104.306;2023-07-09T10:50:15;14.65;;;9.52;;
77076;SDS011;66003;52.286;104.306;2023-07-09T10:52:50;15.35;;;9.23;;
77076;SDS011;66003;52.286;104.306;2023-07-09T10:55:24;16.08;;;9.52;;
77076;SDS011;66003;52.286;104.306;2023-07-09T11:01:05;16.80;;;10.60;;
77076;SDS011;66003;52.286;104.306;2023-07-09T11:03:54;18.13;;;11.02;;
77076;SDS011;66003;52.286;104.306;2023-07-09T11:06:28;16.90;;;11.32;;
77076;SDS011;66003;52.286;104.306;2023-07-09T11:09:00;16.83;;;10.68;;
77076;SDS011;66003;52.286;104.306;2023-07-09T11:11:32;16.50;;;10.63;;
77076;SDS011;66003;52.286;104.306;2023-07-09T11:14:08;19.02;;;10.50;;
77076;SDS011;66003;52.286;104.306;2023-07-09T11:16:52;15.30;;;9.90;;
77076;SDS011;66003;52.286;104.306;2023-07-09T11:19:21;17.00;;;10.10;;
77076;SDS011;66003;52.286;104.306;2023-07-09T11:21:57;17.73;;;10.52;;
77076;SDS011;66003;52.286;104.306;2023-07-09T11:24:30;16.65;;;10.63;;
77076;SDS011;66003;52.286;104.306;2023-07-09T11:27:02;17.50;;;9.85;;
77076;SDS011;66003;52.286;104.306;2023-07-09T11:29:28;18.92;;;10.63;;
77076;SDS011;66003;52.286;104.306;2023-07-09T11:31:54;16.85;;;10.93;;
77076;SDS011;66003;52.286;104.306;2023-07-09T11:34:32;16.33;;;10.68;;
77076;SDS011;66003;52.286;104.306;2023-07-09T11:36:59;17.13;;;9.52;;
77076;SDS011;66003;52.286;104.306;2023-07-09T11:39:28;17.65;;;9.68;;
77076;SDS011;66003;52.286;104.306;2023-07-09T11:41:57;18.65;;;11.60;;
77076;SDS011;66003;52.286;104.306;2023-07-09T11:44:26;18.80;;;11.00;;
77076;SDS011;66003;52.286;104.306;2023-07-09T11:52:34;15.63;;;10.57;;
77076;SDS011;66003;52.286;104.306;2023-07-09T11:57:59;18.25;;;10.23;;
77076;SDS011;66003;52.286;104.306;2023-07-09T12:00:27;25.80;;;10.93;;
77076;SDS011;66003;52.286;104.306;2023-07-09T12:03:02;17.42;;;10.68;;
77076;SDS011;66003;52.286;104.306;2023-07-09T12:05:29;16.95;;;10.13;;
77076;SDS011;66003;52.286;104.306;2023-07-09T12:07:56;18.27;;;10.00;;
77076;SDS011;66003;52.286;104.306;2023-07-09T12:10:26;17.02;;;10.05;;
77076;SDS011;66003;52.286;104.306;2023-07-09T12:12:55;15.43;;;9.70;;
77076;SDS011;66003;52.286;104.306;2023-07-09T12:15:23;17.60;;;10.35;;
77076;SDS011;66003;52.286;104.306;2023-07-09T12:17:53;17.20;;;10.35;;
77076;SDS011;66003;52.286;104.306;2023-07-09T12:20:24;20.58;;;11.13;;
77076;SDS011;66003;52.286;104.306;2023-07-09T12:22:54;16.73;;;10.52;;
77076;SDS011;66003;52.286;104.306;2023-07-09T12:25:24;17.13;;;10.18;;
77076;SDS011;66003;52.286;104.306;2023-07-09T12:27:53;19.88;;;10.50;;
77076;SDS011;66003;52.286;104.306;2023-07-09T12:30:19;18.63;;;11.20;;
77076;SDS011;66003;52.286;104.306;2023-07-09T12:32:46;17.50;;;10.57;;
77076;SDS011;66003;52.286;104.306;2023-07-09T12:35:18;19.00;;;10.95;;
77076;SDS011;66003;52.286;104.306;2023-07-09T12:37:46;15.40;;;10.02;;
77076;SDS011;66003;52.286;104.306;2023-07-09T12:40:19;16.08;;;10.95;;
77076;SDS011;66003;52.286;104.306;2023-07-09T12:42:48;15.38;;;10.60;;
77076;SDS011;66003;52.286;104.306;2023-07-09T12:45:15;19.15;;;9.70;;
77076;SDS011;66003;52.286;104.306;2023-07-09T12:47:44;15.20;;;10.15;;
77076;SDS011;66003;52.286;104.306;2023-07-09T12:52:48;20.60;;;10.73;;
77076;SDS011;66003;52.286;104.306;2023-07-09T12:55:25;17.80;;;10.60;;
77076;SDS011;66003;52.286;104.306;2023-07-09T12:57:55;19.00;;;10.75;;
77076;SDS011;66003;52.286;104.306;2023-07-09T13:00:23;18.42;;;12.02;;
77076;SDS011;66003;52.286;104.306;2023-07-09T13:02:57;19.33;;;12.23;;
77076;SDS011;66003;52.286;104.306;2023-07-09T13:05:25;19.67;;;12.43;;
77076;SDS011;66003;52.286;104.306;2023-07-09T13:07:53;19.73;;;11.63;;
77076;SDS011;66003;52.286;104.306;2023-07-09T13:10:30;19.45;;;12.05;;
77076;SDS011;66003;52.286;104.306;2023-07-09T13:13:00;19.67;;;12.45;;
77076;SDS011;66003;52.286;104.306;2023-07-09T13:15:30;18.48;;;11.85;;
77076;SDS011;66003;52.286;104.306;2023-07-09T13:17:58;20.58;;;11.07;;
77076;SDS011;66003;52.286;104.306;2023-07-09T13:20:31;18.42;;;11.38;;
77076;SDS011;66003;52.286;104.306;2023-07-09T13:23:00;19.42;;;11.60;;
77076;SDS011;66003;52.286;104.306;2023-07-09T13:25:33;20.30;;;12.30;;
77076;SDS011;66003;52.286;104.306;2023-07-09T13:27:59;22.60;;;13.50;;
77076;SDS011;66003;52.286;104.306;2023-07-09T13:30:26;20.00;;;12.00;;
77076;SDS011;66003;52.286;104.306;2023-07-09T13:32:52;22.48;;;12.73;;
77076;SDS011;66003;52.286;104.306;2023-07-09T13:35:18;19.73;;;12.38;;
77076;SDS011;66003;52.286;104.306;2023-07-09T13:37:45;21.55;;;12.95;;
77076;SDS011;66003;52.286;104.306;2023-07-09T13:40:15;20.23;;;11.27;;
77076;SDS011;66003;52.286;104.306;2023-07-09T13:42:42;17.92;;;10.98;;
77076;SDS011;66003;52.286;104.306;2023-07-09T13:45:20;19.98;;;11.57;;
77076;SDS011;66003;52.286;104.306;2023-07-09T13:47:49;20.77;;;11.30;;
77076;SDS011;66003;52.286;104.306;2023-07-09T13:50:17;18.98;;;11.07;;
77076;SDS011;66003;52.286;104.306;2023-07-09T13:52:43;20.10;;;10.25;;
77076;SDS011;66003;52.286;104.306;2023-07-09T13:55:19;19.55;;;11.63;;
77076;SDS011;66003;52.286;104.306;2023-07-09T13:57:48;14.35;;;9.60;;
77076;SDS011;66003;52.286;104.306;2023-07-09T14:00:15;16.95;;;10.30;;
77076;SDS011;66003;52.286;104.306;2023-07-09T14:02:42;18.58;;;10.35;;
77076;SDS011;66003;52.286;104.306;2023-07-09T14:05:10;18.52;;;11.15;;
77076;SDS011;66003;52.286;104.306;2023-07-09T14:07:39;18.73;;;10.50;;
77076;SDS011;66003;52.286;104.306;2023-07-09T14:10:10;20.73;;;10.95;;
77076;SDS011;66003;52.286;104.306;2023-07-09T14:12:41;20.35;;;11.32;;
77076;SDS011;66003;52.286;104.306;2023-07-09T14:15:14;20.05;;;11.25;;
77076;SDS011;66003;52.286;104.306;2023-07-09T14:17:42;20.40;;;12.13;;
77076;SDS011;66003;52.286;104.306;2023-07-09T14:20:16;20.48;;;11.43;;
77076;SDS011;66003;52.286;104.306;2023-07-09T14:22:43;23.30;;;12.02;;
77076;SDS011;66003;52.286;104.306;2023-07-09T14:25:14;19.40;;;11.50;;
77076;SDS011;66003;52.286;104.306;2023-07-09T14:27:45;24.35;;;12.10;;
77076;SDS011;66003;52.286;104.306;2023-07-09T14:30:14;20.85;;;11.80;;
77076;SDS011;66003;52.286;104.306;2023-07-09T14:32:43;18.98;;;11.73;;
77076;SDS011;66003;52.286;104.306;2023-07-09T14:35:17;21.60;;;10.98;;
77076;SDS011;66003;52.286;104.306;2023-07-09T14:37:46;20.27;;;11.10;;
77076;SDS011;66003;52.286;104.306;2023-07-09T14:40:14;20.23;;;11.77;;
77076;SDS011;66003;52.286;104.306;2023-07-09T14:42:42;19.73;;;11.55;;
77076;SDS011;66003;52.286;104.306;2023-07-09T14:45:16;20.40;;;11.23;;
77076;SDS011;66003;52.286;104.306;2023-07-09T14:47:42;22.05;;;11.65;;
77076;SDS011;66003;52.286;104.306;2023-07-09T14:50:09;18.50;;;10.77;;
77076;SDS011;66003;52.286;104.306;2023-07-09T14:52:36;18.35;;;10.73;;